createdAt,value
2022-08-03T00:01:24.962Z,22.80
2022-08-03T00:03:26.739Z,22.80
2022-08-03T00:05:28.519Z,22.83
2022-08-03T00:07:30.239Z,22.83
2022-08-03T00:09:35.960Z,22.81
2022-08-03T00:11:38.028Z,22.79
2022-08-03T00:13:39.722Z,22.72
2022-08-03T00:15:42.685Z,22.63
2022-08-03T00:17:53.478Z,22.59
2022-08-03T00:19:55.622Z,22.58
2022-08-03T00:21:57.290Z,22.55
2022-08-03T00:23:58.991Z,22.56
2022-08-03T00:26:01.136Z,22.55
2022-08-03T00:28:06.228Z,22.55
2022-08-03T00:30:10.609Z,22.53
2022-08-03T00:32:12.385Z,22.49
2022-08-03T00:34:15.052Z,22.40
2022-08-03T00:36:17.289Z,22.32
2022-08-03T00:38:19.984Z,22.24
2022-08-03T00:40:22.008Z,22.08
2022-08-03T00:42:23.750Z,22.01
2022-08-03T00:44:30.891Z,22.05
2022-08-03T00:46:32.559Z,22.10
2022-08-03T00:48:34.312Z,22.14
2022-08-03T00:50:40.400Z,22.12
2022-08-03T00:52:42.248Z,22.10
2022-08-03T00:54:44.090Z,22.08
2022-08-03T00:57:00.294Z,22.12
2022-08-03T00:59:03.305Z,22.15
2022-08-03T01:01:07.354Z,22.15
2022-08-03T01:03:10.651Z,22.09
2022-08-03T01:05:12.918Z,22.05
2022-08-03T01:07:53.082Z,21.98
2022-08-03T01:10:22.236Z,21.96
2022-08-03T01:12:39.703Z,21.94
2022-08-03T01:15:22.136Z,21.90
2022-08-03T01:17:32.170Z,21.78
2022-08-03T01:19:45.881Z,21.70
2022-08-03T01:22:12.414Z,21.72
2022-08-03T01:24:38.069Z,21.77
2022-08-03T01:26:50.716Z,21.77
2022-08-03T01:28:58.471Z,21.70
2022-08-03T01:31:08.404Z,21.62
2022-08-03T01:33:18.246Z,21.42
2022-08-03T01:35:44.487Z,21.15
2022-08-03T01:38:00.814Z,20.65
2022-08-03T01:40:04.185Z,20.46
2022-08-03T01:42:07.901Z,20.30
2022-08-03T01:44:30.182Z,20.22
2022-08-03T01:46:32.958Z,20.26
2022-08-03T01:48:37.325Z,19.76
2022-08-03T01:50:40.430Z,19.73
2022-08-03T01:52:43.017Z,19.76
2022-08-03T01:54:47.224Z,19.81
2022-08-03T01:56:50.150Z,19.91
2022-08-03T01:58:53.297Z,19.89
2022-08-03T02:00:59.502Z,20.00
2022-08-03T02:03:02.058Z,20.05
2022-08-03T02:05:10.743Z,20.20
2022-08-03T02:07:14.565Z,20.41
2022-08-03T02:09:16.860Z,20.58
2022-08-03T02:11:18.776Z,20.71
2022-08-03T02:13:21.449Z,20.82
2022-08-03T02:15:23.445Z,20.91
2022-08-03T02:17:39.819Z,20.99
2022-08-03T02:19:43.584Z,21.01
2022-08-03T02:21:56.651Z,21.02
2022-08-03T02:24:04.585Z,21.04
2022-08-03T02:26:09.496Z,21.02
2022-08-03T02:28:13.652Z,21.06
2022-08-03T02:30:15.599Z,21.04
2022-08-03T02:32:20.941Z,21.01
2022-08-03T02:34:24.775Z,21.04
2022-08-03T02:36:30.174Z,21.08
2022-08-03T02:38:36.677Z,21.10
2022-08-03T02:40:39.089Z,21.11
2022-08-03T02:42:41.786Z,21.12
2022-08-03T02:44:47.869Z,21.15
2022-08-03T02:46:50.021Z,21.15
2022-08-03T02:48:52.629Z,21.09
2022-08-03T02:50:57.684Z,20.96
2022-08-03T02:53:02.129Z,20.78
2022-08-03T02:55:05.080Z,20.71
2022-08-03T02:57:10.622Z,20.67
2022-08-03T02:59:13.009Z,20.66
2022-08-03T03:01:14.946Z,20.66
2022-08-03T03:03:16.754Z,20.62
2022-08-03T03:05:55.014Z,20.55
2022-08-03T03:07:51.998Z,20.60
2022-08-03T03:09:54.933Z,20.70
2022-08-03T03:11:57.013Z,20.76
2022-08-03T03:13:59.094Z,20.66
2022-08-03T03:16:01.727Z,20.48
2022-08-03T03:18:03.795Z,20.45
2022-08-03T03:20:07.124Z,20.44
2022-08-03T03:22:09.265Z,20.52
2022-08-03T03:24:11.082Z,20.62
2022-08-03T03:26:14.854Z,20.71
2022-08-03T03:28:16.922Z,20.80
2022-08-03T03:30:18.669Z,20.86
2022-08-03T03:32:20.449Z,20.92
2022-08-03T03:34:22.443Z,20.95
2022-08-03T03:36:25.544Z,20.95
2022-08-03T03:38:27.600Z,20.96
2022-08-03T03:40:29.430Z,21.01
2022-08-03T03:42:31.292Z,21.05
2022-08-03T03:44:33.058Z,21.09
2022-08-03T03:46:34.740Z,21.15
2022-08-03T03:48:36.507Z,21.19
2022-08-03T03:50:41.060Z,21.22
2022-08-03T03:52:42.931Z,21.23
2022-08-03T03:54:45.528Z,21.22
2022-08-03T03:56:47.775Z,21.22
2022-08-03T03:58:49.775Z,21.22
2022-08-03T04:00:51.435Z,21.18
2022-08-03T04:02:53.171Z,21.18
2022-08-03T04:05:13.465Z,21.15
2022-08-03T04:07:33.757Z,21.07
2022-08-03T04:09:55.270Z,21.07
2022-08-03T04:12:01.995Z,21.15
2022-08-03T04:14:11.539Z,21.24
2022-08-03T04:16:15.434Z,21.26
2022-08-03T04:18:17.639Z,21.32
2022-08-03T04:20:21.062Z,21.34
2022-08-03T04:22:28.861Z,21.42
2022-08-03T04:24:35.037Z,21.46
2022-08-03T04:26:40.412Z,21.54
2022-08-03T04:28:46.000Z,21.58
2022-08-03T04:30:50.789Z,21.61
2022-08-03T04:32:53.311Z,21.62
2022-08-03T04:34:56.116Z,21.66
2022-08-03T04:37:03.690Z,21.70
2022-08-03T04:39:09.032Z,21.71
2022-08-03T04:41:11.973Z,21.80
2022-08-03T04:43:15.363Z,21.72
2022-08-03T04:45:17.876Z,21.74
2022-08-03T04:47:21.003Z,21.77
2022-08-03T04:49:23.020Z,21.66
2022-08-03T04:51:25.268Z,21.64
2022-08-03T04:53:27.159Z,21.59
2022-08-03T04:55:33.666Z,21.60
2022-08-03T04:57:35.496Z,21.65
2022-08-03T04:59:39.076Z,21.70
2022-08-03T05:01:42.677Z,21.75
2022-08-03T05:03:44.449Z,21.68
2022-08-03T05:05:50.192Z,21.39
2022-08-03T05:07:53.108Z,21.33
2022-08-03T05:10:01.594Z,21.30
2022-08-03T05:12:06.495Z,21.19
2022-08-03T05:14:08.268Z,21.23
2022-08-03T05:16:10.158Z,21.30
2022-08-03T05:18:14.131Z,21.23
2022-08-03T05:20:16.582Z,21.30
2022-08-03T05:22:21.389Z,21.39
2022-08-03T05:24:23.101Z,21.55
2022-08-03T05:26:24.896Z,21.71
2022-08-03T05:28:28.523Z,21.92
2022-08-03T05:30:33.552Z,21.92
2022-08-03T05:32:36.053Z,21.80
2022-08-03T05:34:37.993Z,21.75
2022-08-03T05:36:39.805Z,21.88
2022-08-03T05:38:41.576Z,22.05
2022-08-03T05:40:56.778Z,22.23
2022-08-03T05:43:00.030Z,22.28
2022-08-03T05:45:13.120Z,22.33
2022-08-03T05:47:15.139Z,22.03
2022-08-03T05:49:17.009Z,21.87
2022-08-03T05:51:18.864Z,21.67
2022-08-03T05:53:20.907Z,21.72
2022-08-03T05:55:22.542Z,21.84
2022-08-03T05:57:25.263Z,22.04
2022-08-03T05:59:38.179Z,22.28
2022-08-03T06:01:40.489Z,22.54
2022-08-03T06:03:42.430Z,22.65
2022-08-03T06:05:54.979Z,22.74
2022-08-03T06:08:03.383Z,22.88
2022-08-03T06:10:36.387Z,23.04
2022-08-03T06:12:27.465Z,23.15
2022-08-03T06:14:29.172Z,23.24
2022-08-03T06:16:30.954Z,23.24
2022-08-03T06:18:32.765Z,23.24
2022-08-03T06:20:34.700Z,22.97
2022-08-03T06:22:36.965Z,22.75
2022-08-03T06:24:53.688Z,22.72
2022-08-03T06:26:56.790Z,22.83
2022-08-03T06:28:58.513Z,22.94
2022-08-03T06:31:01.607Z,23.01
2022-08-03T06:33:03.379Z,23.20
2022-08-03T06:35:10.621Z,23.25
2022-08-03T06:37:12.327Z,23.31
2022-08-03T06:41:37.425Z,23.63
2022-08-03T06:44:02.933Z,23.84
2022-08-03T06:46:01.770Z,24.05
2022-08-03T06:48:12.933Z,24.24
2022-08-03T06:50:17.513Z,24.29
2022-08-03T06:52:37.426Z,24.20
2022-08-03T06:54:40.058Z,24.22
2022-08-03T06:56:41.852Z,24.30
2022-08-03T06:58:43.517Z,24.30
2022-08-03T07:00:45.248Z,24.29
2022-08-03T07:02:47.466Z,23.90
2022-08-03T07:04:49.272Z,23.61
2022-08-03T07:06:50.928Z,23.73
2022-08-03T07:08:56.523Z,23.90
2022-08-03T07:11:00.859Z,24.19
2022-08-03T07:13:02.564Z,24.41
2022-08-03T07:15:05.517Z,24.64
2022-08-03T07:17:11.971Z,24.80
2022-08-03T07:19:13.868Z,24.80
2022-08-03T07:21:17.148Z,24.53
2022-08-03T07:23:19.241Z,24.37
2022-08-03T07:25:21.678Z,24.51
2022-08-03T07:27:23.833Z,24.64
2022-08-03T07:29:25.673Z,24.66
2022-08-03T07:31:27.622Z,24.73
2022-08-03T07:33:36.170Z,24.57
2022-08-03T07:35:37.926Z,24.44
2022-08-03T07:37:39.629Z,24.21
2022-08-03T07:39:41.426Z,24.15
2022-08-03T07:41:43.093Z,24.21
2022-08-03T07:43:44.740Z,24.54
2022-08-03T07:45:46.482Z,24.91
2022-08-03T07:47:53.519Z,25.24
2022-08-03T07:49:56.039Z,25.49
2022-08-03T07:52:16.552Z,25.47
2022-08-03T07:54:18.499Z,24.91
2022-08-03T07:56:20.254Z,24.90
2022-08-03T07:58:24.320Z,25.10
2022-08-03T08:00:27.084Z,25.30
2022-08-03T08:02:28.847Z,25.50
2022-08-03T08:04:30.920Z,25.30
2022-08-03T08:06:33.392Z,25.39
2022-08-03T08:08:35.622Z,25.38
2022-08-03T08:10:37.685Z,25.51
2022-08-03T08:12:40.291Z,25.62
2022-08-03T08:14:42.573Z,25.82
2022-08-03T08:16:44.318Z,25.88
2022-08-03T08:18:45.954Z,26.12
2022-08-03T08:20:47.880Z,26.34
2022-08-03T08:22:50.136Z,26.52
2022-08-03T08:24:53.552Z,26.66
2022-08-03T08:26:57.226Z,26.49
2022-08-03T08:28:58.988Z,26.53
2022-08-03T08:31:01.641Z,26.24
2022-08-03T08:33:03.459Z,26.21
2022-08-03T08:35:06.391Z,26.21
2022-08-03T08:37:08.125Z,25.99
2022-08-03T08:39:09.985Z,26.00
2022-08-03T08:41:12.229Z,26.00
2022-08-03T08:43:13.840Z,26.14
2022-08-03T08:45:15.741Z,26.32
2022-08-03T08:47:19.545Z,26.46
2022-08-03T08:49:23.318Z,26.38
2022-08-03T08:51:51.059Z,26.52
2022-08-03T08:53:53.856Z,26.67
2022-08-03T08:56:00.970Z,26.64
2022-08-03T08:58:05.987Z,26.78
2022-08-03T09:00:10.911Z,26.85
2022-08-03T09:02:12.722Z,26.99
2022-08-03T09:04:14.554Z,27.20
2022-08-03T09:06:17.081Z,27.40
2022-08-03T09:08:19.031Z,27.64
2022-08-03T09:10:22.113Z,27.86
2022-08-03T09:12:42.228Z,28.05
2022-08-03T09:15:00.845Z,28.19
2022-08-03T09:17:06.811Z,28.33
2022-08-03T09:19:16.268Z,28.50
2022-08-03T09:21:34.748Z,28.52
2022-08-03T09:24:02.240Z,28.62
2022-08-03T09:26:04.495Z,28.54
2022-08-03T09:28:11.639Z,28.05
2022-08-03T09:30:32.512Z,27.55
2022-08-03T09:32:37.370Z,27.35
2022-08-03T09:34:39.071Z,27.48
2022-08-03T09:36:43.267Z,27.58
2022-08-03T09:39:02.652Z,27.53
2022-08-03T09:41:18.089Z,27.74
2022-08-03T09:43:20.494Z,28.09
2022-08-03T09:45:28.475Z,27.96
2022-08-03T09:47:34.586Z,27.99
2022-08-03T09:49:37.744Z,28.14
2022-08-03T09:52:32.007Z,28.11
2022-08-03T09:54:05.775Z,27.98
2022-08-03T09:56:34.127Z,27.82
2022-08-03T09:58:32.469Z,27.82
2022-08-03T10:00:57.045Z,27.87
2022-08-03T10:03:04.941Z,27.89
2022-08-03T10:05:08.458Z,27.89
2022-08-03T10:07:11.284Z,27.95
2022-08-03T10:09:15.571Z,28.01
2022-08-03T10:11:30.631Z,27.98
2022-08-03T10:13:32.479Z,28.33
2022-08-03T10:16:23.070Z,28.51
2022-08-03T10:17:56.056Z,28.91
2022-08-03T10:19:59.147Z,29.03
2022-08-03T10:22:08.341Z,28.84
2022-08-03T10:24:13.294Z,28.45
2022-08-03T10:26:19.315Z,28.45
2022-08-03T10:28:21.495Z,28.48
2022-08-03T10:30:26.139Z,28.64
2022-08-03T10:32:31.764Z,28.75
2022-08-03T10:34:35.461Z,28.82
2022-08-03T10:36:38.672Z,29.03
2022-08-03T10:38:52.962Z,29.16
2022-08-03T10:40:59.057Z,28.78
2022-08-03T10:43:13.404Z,28.46
2022-08-03T10:45:20.037Z,28.47
2022-08-03T10:47:21.931Z,28.52
2022-08-03T10:49:33.768Z,28.68
2022-08-03T10:51:36.779Z,28.49
2022-08-03T10:53:40.591Z,28.03
2022-08-03T10:56:05.639Z,27.80
2022-08-03T10:58:11.121Z,27.91
2022-08-03T11:00:15.246Z,27.83
2022-08-03T11:02:18.019Z,28.15
2022-08-03T11:04:21.333Z,27.88
2022-08-03T11:06:24.730Z,27.81
2022-08-03T11:08:28.063Z,27.97
2022-08-03T11:10:30.282Z,27.88
2022-08-03T11:12:33.540Z,27.72
2022-08-03T11:14:46.079Z,28.03
2022-08-03T11:17:07.581Z,28.21
2022-08-03T11:19:18.085Z,28.04
2022-08-03T11:21:19.835Z,28.22
2022-08-03T11:24:05.524Z,28.61
2022-08-03T11:26:13.719Z,29.03
2022-08-03T11:28:28.682Z,29.45
2022-08-03T11:30:30.682Z,29.53
2022-08-03T11:32:39.985Z,29.37
2022-08-03T11:35:09.990Z,29.19
2022-08-03T11:37:27.254Z,28.83
2022-08-03T11:39:45.513Z,28.88
2022-08-03T11:41:47.328Z,28.72
2022-08-03T11:43:49.108Z,28.55
2022-08-03T11:46:03.993Z,28.44
2022-08-03T11:48:16.784Z,28.66
2022-08-03T11:50:20.191Z,29.08
2022-08-03T11:52:27.298Z,29.39
2022-08-03T11:54:30.609Z,29.11
2022-08-03T11:56:46.623Z,28.68
2022-08-03T11:59:01.745Z,28.69
2022-08-03T12:01:22.882Z,28.61
2022-08-03T12:03:25.040Z,28.70
2022-08-03T12:05:36.573Z,28.74
2022-08-03T12:08:04.972Z,28.80
2022-08-03T12:10:09.944Z,28.94
2022-08-03T12:12:16.422Z,29.05
2022-08-03T12:14:48.419Z,29.12
2022-08-03T12:16:41.342Z,29.00
2022-08-03T12:18:43.195Z,28.86
2022-08-03T12:20:46.117Z,28.94
2022-08-03T12:22:48.121Z,28.37
2022-08-03T12:24:51.877Z,28.28
2022-08-03T12:26:58.847Z,28.13
2022-08-03T12:29:01.328Z,28.06
2022-08-03T12:31:06.522Z,27.98
2022-08-03T12:33:25.975Z,27.81
2022-08-03T12:35:27.759Z,27.82
2022-08-03T12:37:29.860Z,27.88
2022-08-03T12:39:31.932Z,27.88
2022-08-03T12:41:35.460Z,27.77
2022-08-03T12:43:39.865Z,27.74
2022-08-03T12:45:41.946Z,27.84
2022-08-03T12:47:55.574Z,28.09
2022-08-03T12:49:57.517Z,28.22
2022-08-03T12:52:05.348Z,28.39
2022-08-03T12:54:24.366Z,28.45
2022-08-03T12:56:27.118Z,28.45
2022-08-03T12:58:34.358Z,28.56
2022-08-03T13:01:33.119Z,28.91
2022-08-03T13:04:33.125Z,29.26
2022-08-03T13:06:35.779Z,28.97
2022-08-03T13:08:37.542Z,28.71
2022-08-03T13:10:39.257Z,28.58
2022-08-03T13:12:48.361Z,28.50
2022-08-03T13:14:52.114Z,28.52
2022-08-03T13:16:53.905Z,28.67
2022-08-03T13:18:56.430Z,28.91
2022-08-03T13:20:58.459Z,29.11
2022-08-03T13:23:01.078Z,29.22
2022-08-03T13:25:03.653Z,29.35
2022-08-03T13:28:01.272Z,28.81
2022-08-03T13:29:29.248Z,28.58
2022-08-03T13:31:31.707Z,28.69
2022-08-03T13:33:33.839Z,28.51
2022-08-03T13:35:35.737Z,28.55
2022-08-03T13:37:38.368Z,28.73
2022-08-03T13:39:58.279Z,28.74
2022-08-03T13:42:02.694Z,28.67
2022-08-03T13:44:26.639Z,28.65
2022-08-03T13:46:27.838Z,28.48
2022-08-03T13:48:37.028Z,28.36
2022-08-03T13:50:42.948Z,28.15
2022-08-03T13:52:46.538Z,28.23
2022-08-03T13:54:48.226Z,28.12
2022-08-03T13:56:52.925Z,28.07
2022-08-03T13:58:55.105Z,28.27
2022-08-03T14:00:56.939Z,28.38
2022-08-03T14:03:06.542Z,28.49
2022-08-03T14:05:11.360Z,28.59
2022-08-03T14:07:14.774Z,28.66
2022-08-03T14:09:17.208Z,28.67
2022-08-03T14:11:19.049Z,28.67
2022-08-03T14:13:20.926Z,28.65
2022-08-03T14:15:22.722Z,28.62
2022-08-03T14:17:24.760Z,28.56
2022-08-03T14:19:26.786Z,28.53
2022-08-03T14:21:29.115Z,28.47
2022-08-03T14:23:30.818Z,28.47
2022-08-03T14:25:44.558Z,28.48
2022-08-03T14:27:52.938Z,28.44
2022-08-03T14:29:56.661Z,28.38
2022-08-03T14:32:09.450Z,28.37
2022-08-03T14:34:12.430Z,28.32
2022-08-03T14:36:14.438Z,28.32
2022-08-03T14:38:16.977Z,28.36
2022-08-03T14:40:19.801Z,28.34
2022-08-03T14:42:21.661Z,28.37
2022-08-03T14:44:23.472Z,28.38
2022-08-03T14:46:25.236Z,28.38
2022-08-03T14:50:33.284Z,28.39
2022-08-03T14:50:51.817Z,28.35
2022-08-03T14:52:53.969Z,28.34
2022-08-03T14:54:56.065Z,28.38
2022-08-03T14:56:58.975Z,28.41
2022-08-03T14:59:00.754Z,28.43
2022-08-03T15:01:02.696Z,28.39
2022-08-03T15:03:25.303Z,28.39
2022-08-03T15:05:27.248Z,28.33
2022-08-03T15:07:29.222Z,28.16
2022-08-03T15:09:30.949Z,27.91
2022-08-03T15:11:32.671Z,27.83
2022-08-03T15:13:52.992Z,27.85
2022-08-03T15:15:54.761Z,27.81
2022-08-03T15:17:59.844Z,27.81
2022-08-03T15:20:25.593Z,27.88
2022-08-03T15:22:25.272Z,27.94
2022-08-03T15:24:36.255Z,27.98
2022-08-03T15:26:41.511Z,27.80
2022-08-03T15:28:43.875Z,27.74
2022-08-03T15:30:45.618Z,27.55
2022-08-03T15:32:47.377Z,27.56
2022-08-03T15:34:50.747Z,27.56
2022-08-03T15:36:52.719Z,27.53
2022-08-03T15:38:54.510Z,27.27
2022-08-03T15:40:59.151Z,27.04
2022-08-03T15:43:01.819Z,26.74
2022-08-03T15:45:04.372Z,26.64
2022-08-03T15:47:06.307Z,26.63
2022-08-03T15:49:08.022Z,26.59
2022-08-03T15:51:10.415Z,26.60
2022-08-03T15:53:12.086Z,26.50
2022-08-03T15:55:15.850Z,26.53
2022-08-03T15:57:19.488Z,26.62
2022-08-03T15:59:21.589Z,26.70
2022-08-03T16:01:25.378Z,26.83
2022-08-03T16:03:28.509Z,26.80
2022-08-03T16:05:30.467Z,26.69
2022-08-03T16:07:59.044Z,26.57
2022-08-03T16:10:06.375Z,26.28
2022-08-03T16:12:15.680Z,26.03
2022-08-03T16:14:32.601Z,26.05
2022-08-03T16:16:40.931Z,26.03
2022-08-03T16:18:42.730Z,25.88
2022-08-03T16:20:47.696Z,25.83
2022-08-03T16:22:49.599Z,25.68
2022-08-03T16:24:54.858Z,25.64
2022-08-03T16:27:00.530Z,25.54
2022-08-03T16:29:02.703Z,25.50
2022-08-03T16:31:06.310Z,25.43
2022-08-03T16:33:26.640Z,25.42
2022-08-03T16:35:28.376Z,25.38
2022-08-03T16:37:39.052Z,25.34
2022-08-03T16:39:41.277Z,25.34
2022-08-03T16:41:54.078Z,25.40
2022-08-03T16:44:06.667Z,25.37
2022-08-03T16:46:11.775Z,25.43
2022-08-03T16:48:14.514Z,25.43
2022-08-03T16:50:19.889Z,25.42
2022-08-03T16:52:21.937Z,25.43
2022-08-03T16:54:24.625Z,25.45
2022-08-03T16:56:29.779Z,25.49
2022-08-03T16:58:41.890Z,25.53
2022-08-03T17:00:44.703Z,25.57
2022-08-03T17:02:52.501Z,25.58
2022-08-03T17:04:56.055Z,25.58
2022-08-03T17:06:58.318Z,25.63
2022-08-03T17:09:10.016Z,25.67
2022-08-03T17:11:12.965Z,25.79
2022-08-03T17:13:22.011Z,26.00
2022-08-03T17:15:38.137Z,26.17
2022-08-03T17:17:57.858Z,26.33
2022-08-03T17:20:05.488Z,26.38
2022-08-03T17:22:17.889Z,26.39
2022-08-03T17:24:33.205Z,26.39
2022-08-03T17:26:40.231Z,26.40
2022-08-03T17:28:51.304Z,26.39
2022-08-03T17:31:22.998Z,26.35
2022-08-03T17:33:35.636Z,26.31
2022-08-03T17:35:38.527Z,26.32
2022-08-03T17:37:58.693Z,26.24
2022-08-03T17:40:06.650Z,26.22
2022-08-03T17:42:38.972Z,26.17
2022-08-03T17:44:37.645Z,26.13
2022-08-03T17:46:43.082Z,26.11
2022-08-03T17:48:45.388Z,26.11
2022-08-03T17:51:00.924Z,26.12
2022-08-03T17:53:15.681Z,26.11
2022-08-03T17:55:56.724Z,26.11
2022-08-03T17:58:02.657Z,26.10
2022-08-03T18:00:34.841Z,26.09
2022-08-03T18:03:17.802Z,26.04
2022-08-03T18:08:02.599Z,26.02
2022-08-03T18:10:11.290Z,26.02
2022-08-03T18:12:28.179Z,26.04
2022-08-03T18:14:38.496Z,26.01
2022-08-03T18:16:57.488Z,25.95
2022-08-03T18:19:09.524Z,25.85
2022-08-03T18:21:16.866Z,25.53
2022-08-03T18:23:25.417Z,25.14
2022-08-03T18:25:49.991Z,24.80
2022-08-03T18:28:05.553Z,24.55
2022-08-03T18:30:08.079Z,24.32
2022-08-03T18:32:16.952Z,24.15
2022-08-03T18:36:49.278Z,23.90
2022-08-03T18:38:53.915Z,23.83
2022-08-03T18:40:55.857Z,23.80
2022-08-03T18:42:58.532Z,23.76
2022-08-03T18:45:15.021Z,23.70
2022-08-03T18:47:56.262Z,23.66
2022-08-03T18:50:49.501Z,23.59
2022-08-03T18:53:16.151Z,23.73
2022-08-03T18:55:33.736Z,23.82
2022-08-03T18:58:08.518Z,23.94
2022-08-03T19:00:23.931Z,24.02
2022-08-03T19:02:34.922Z,24.12
2022-08-03T19:04:49.283Z,24.19
2022-08-03T19:06:51.631Z,24.27
2022-08-03T19:09:03.240Z,24.35
2022-08-03T19:11:08.185Z,24.37
2022-08-03T19:13:36.113Z,24.41
2022-08-03T19:15:51.076Z,24.46
2022-08-03T19:17:55.314Z,24.50
2022-08-03T19:19:58.410Z,24.53
2022-08-03T19:22:05.131Z,24.55
2022-08-03T19:24:13.506Z,24.58
2022-08-03T19:26:26.684Z,24.56
2022-08-03T19:28:33.415Z,24.56
2022-08-03T19:30:46.453Z,24.57
2022-08-03T19:32:55.393Z,24.55
2022-08-03T19:34:59.474Z,24.56
2022-08-03T19:37:02.464Z,24.56
2022-08-03T19:39:09.062Z,24.53
2022-08-03T19:41:13.963Z,24.52
2022-08-03T19:43:33.037Z,24.52
2022-08-03T19:46:05.260Z,24.53
2022-08-03T19:48:13.291Z,24.52
2022-08-03T19:50:15.727Z,24.47
2022-08-03T19:52:20.561Z,24.44
2022-08-03T19:54:29.734Z,24.40
2022-08-03T19:56:47.148Z,24.34
2022-08-03T19:58:53.265Z,24.27
2022-08-03T20:00:55.576Z,24.17
2022-08-03T20:02:58.200Z,24.14
2022-08-03T20:05:01.029Z,24.12
2022-08-03T20:07:04.503Z,24.16
2022-08-03T20:09:06.409Z,24.17
2022-08-03T20:11:10.142Z,24.19
2022-08-03T20:13:13.399Z,24.21
2022-08-03T20:15:22.396Z,24.18
2022-08-03T20:17:57.160Z,24.12
2022-08-03T20:19:55.185Z,24.06
2022-08-03T20:21:58.996Z,23.97
2022-08-03T20:24:24.692Z,23.86
2022-08-03T20:26:28.925Z,23.84
2022-08-03T20:28:50.472Z,23.71
2022-08-03T20:30:52.996Z,23.64
2022-08-03T20:32:54.774Z,23.59
2022-08-03T20:34:56.582Z,23.57
2022-08-03T20:37:00.559Z,23.59
2022-08-03T20:39:02.752Z,23.58
2022-08-03T20:41:09.764Z,23.61
2022-08-03T20:43:11.549Z,23.61
2022-08-03T20:46:00.972Z,23.65
2022-08-03T20:47:50.727Z,23.71
2022-08-03T20:49:52.917Z,23.74
2022-08-03T20:51:55.584Z,23.75
2022-08-03T20:54:01.173Z,23.68
2022-08-03T20:56:06.133Z,23.58
2022-08-03T20:58:09.352Z,23.39
2022-08-03T21:00:16.756Z,23.34
2022-08-03T21:02:30.340Z,23.37
2022-08-03T21:04:32.799Z,23.35
2022-08-03T21:07:03.291Z,23.35
2022-08-03T21:09:19.738Z,22.95
2022-08-03T21:11:25.079Z,22.62
2022-08-03T21:12:56.493Z,26.03
2022-08-03T21:12:58.522Z,24.03
2022-08-03T21:13:32.410Z,22.43
2022-08-03T21:16:07.146Z,22.40
2022-08-03T21:17:59.853Z,22.45
2022-08-03T21:20:03.344Z,22.49
2022-08-03T21:22:06.805Z,22.57
2022-08-03T21:24:10.848Z,22.64
2022-08-03T21:26:13.078Z,22.59
2022-08-03T21:28:17.237Z,22.54
2022-08-03T21:30:30.275Z,22.57
2022-08-03T21:32:33.369Z,22.64
2022-08-03T21:34:47.986Z,22.63
2022-08-03T21:36:51.219Z,22.70
2022-08-03T21:38:56.579Z,22.75
2022-08-03T21:40:59.740Z,22.84
2022-08-03T21:43:01.714Z,22.92
2022-08-03T21:45:17.149Z,22.96
2022-08-03T21:47:22.529Z,23.03
2022-08-03T21:50:04.347Z,23.05
2022-08-03T21:51:49.700Z,23.09
2022-08-03T21:54:04.222Z,23.11
2022-08-03T21:56:08.561Z,23.14
2022-08-03T21:58:11.732Z,23.16
2022-08-03T22:00:16.454Z,23.17
2022-08-03T22:02:24.195Z,23.17
2022-08-03T22:04:55.056Z,23.15
2022-08-03T22:06:48.796Z,23.15
2022-08-03T22:08:51.873Z,23.17
2022-08-03T22:10:53.610Z,23.17
2022-08-03T22:12:56.049Z,23.14
2022-08-03T22:15:05.243Z,23.12
2022-08-03T22:17:07.293Z,23.08
2022-08-03T22:19:09.822Z,22.88
2022-08-03T22:21:14.662Z,22.76
2022-08-03T22:23:21.161Z,22.65
2022-08-03T22:25:27.449Z,22.59
2022-08-03T22:27:32.333Z,22.44
2022-08-03T22:29:36.875Z,22.26
2022-08-03T22:31:58.657Z,22.23
2022-08-03T22:34:00.541Z,22.31
2022-08-03T22:36:04.805Z,22.39
2022-08-03T22:38:07.356Z,22.45
2022-08-03T22:40:14.680Z,22.54
2022-08-03T22:42:17.117Z,22.60
2022-08-03T22:44:18.849Z,22.66
2022-08-03T22:46:22.187Z,22.69
2022-08-03T22:48:24.550Z,22.72
2022-08-03T22:50:31.926Z,22.70
2022-08-03T22:52:36.900Z,22.69
2022-08-03T22:54:38.631Z,22.66
2022-08-03T22:56:41.486Z,22.69
2022-08-03T22:58:43.313Z,22.68
2022-08-03T23:00:48.211Z,22.69
2022-08-03T23:02:57.450Z,22.69
2022-08-03T23:05:03.629Z,22.69
2022-08-03T23:07:09.310Z,22.73
2022-08-03T23:09:12.811Z,22.74
2022-08-03T23:11:14.577Z,22.74
2022-08-03T23:13:20.402Z,22.69
2022-08-03T23:15:24.952Z,22.71
2022-08-03T23:17:27.179Z,22.68
2022-08-03T23:19:30.264Z,22.67
2022-08-03T23:22:00.346Z,22.65
2022-08-03T23:23:58.741Z,22.38
2022-08-03T23:26:00.658Z,21.93
2022-08-03T23:28:05.118Z,21.58
2022-08-03T23:30:08.309Z,21.14
2022-08-03T23:32:10.346Z,20.92
2022-08-03T23:34:32.091Z,20.72
2022-08-03T23:36:33.813Z,20.64
2022-08-03T23:38:36.527Z,20.65
2022-08-03T23:40:38.389Z,20.71
2022-08-03T23:42:41.902Z,20.81
2022-08-03T23:44:44.664Z,20.85
2022-08-03T23:46:47.172Z,20.83
2022-08-03T23:48:49.059Z,20.95
2022-08-03T23:50:58.308Z,20.96
2022-08-03T23:52:59.910Z,21.09
2022-08-03T23:55:18.683Z,21.23
2022-08-03T23:57:47.060Z,21.31
2022-08-03T23:59:54.548Z,21.38
